sensor_id;sensor_type;location;lat;lon;timestamp;temperature;humidity
60242;SHT30;46103;52.076;113.488;2022-08-19T00:02:00;13.69;56.90
60242;SHT30;46103;52.076;113.488;2022-08-19T00:05:06;13.93;56.70
60242;SHT30;46103;52.076;113.488;2022-08-19T00:08:12;13.87;57.08
60242;SHT30;46103;52.076;113.488;2022-08-19T00:11:17;13.74;56.79
60242;SHT30;46103;52.076;113.488;2022-08-19T00:14:29;13.89;56.89
60242;SHT30;46103;52.076;113.488;2022-08-19T00:17:36;14.02;56.72
60242;SHT30;46103;52.076;113.488;2022-08-19T00:20:45;14.19;56.50
60242;SHT30;46103;52.076;113.488;2022-08-19T00:23:51;14.29;56.02
60242;SHT30;46103;52.076;113.488;2022-08-19T00:26:56;14.10;57.06
60242;SHT30;46103;52.076;113.488;2022-08-19T00:30:22;14.29;54.05
60242;SHT30;46103;52.076;113.488;2022-08-19T00:33:28;14.26;53.70
60242;SHT30;46103;52.076;113.488;2022-08-19T00:36:36;14.30;53.47
60242;SHT30;46103;52.076;113.488;2022-08-19T00:39:43;14.63;52.71
60242;SHT30;46103;52.076;113.488;2022-08-19T00:42:51;14.77;52.31
60242;SHT30;46103;52.076;113.488;2022-08-19T00:45:59;14.89;51.73
60242;SHT30;46103;52.076;113.488;2022-08-19T00:52:55;15.33;50.71
60242;SHT30;46103;52.076;113.488;2022-08-19T00:56:03;15.34;49.81
60242;SHT30;46103;52.076;113.488;2022-08-19T00:59:11;15.33;49.01
60242;SHT30;46103;52.076;113.488;2022-08-19T01:02:36;15.36;49.16
60242;SHT30;46103;52.076;113.488;2022-08-19T01:05:46;15.36;49.60
60242;SHT30;46103;52.076;113.488;2022-08-19T01:09:01;15.27;49.78
60242;SHT30;46103;52.076;113.488;2022-08-19T01:12:07;15.53;49.56
60242;SHT30;46103;52.076;113.488;2022-08-19T01:15:17;15.75;48.09
60242;SHT30;46103;52.076;113.488;2022-08-19T01:18:23;15.80;48.37
60242;SHT30;46103;52.076;113.488;2022-08-19T01:21:42;15.72;46.87
60242;SHT30;46103;52.076;113.488;2022-08-19T01:24:50;15.68;46.99
60242;SHT30;46103;52.076;113.488;2022-08-19T01:27:59;15.63;46.62
60242;SHT30;46103;52.076;113.488;2022-08-19T01:31:17;15.49;46.95
60242;SHT30;46103;52.076;113.488;2022-08-19T01:34:30;15.33;47.36
60242;SHT30;46103;52.076;113.488;2022-08-19T01:37:45;14.88;48.71
60242;SHT30;46103;52.076;113.488;2022-08-19T01:40:51;14.63;49.94
60242;SHT30;46103;52.076;113.488;2022-08-19T01:43:57;14.56;49.80
60242;SHT30;46103;52.076;113.488;2022-08-19T01:47:20;14.54;49.53
60242;SHT30;46103;52.076;113.488;2022-08-19T01:50:26;14.37;49.74
60242;SHT30;46103;52.076;113.488;2022-08-19T01:53:32;14.36;50.32
60242;SHT30;46103;52.076;113.488;2022-08-19T01:56:38;14.40;50.46
60242;SHT30;46103;52.076;113.488;2022-08-19T01:59:44;14.68;48.43
60242;SHT30;46103;52.076;113.488;2022-08-19T02:02:50;14.78;49.07
60242;SHT30;46103;52.076;113.488;2022-08-19T02:06:00;15.20;48.12
60242;SHT30;46103;52.076;113.488;2022-08-19T02:09:08;15.57;47.27
60242;SHT30;46103;52.076;113.488;2022-08-19T02:12:14;15.54;47.46
60242;SHT30;46103;52.076;113.488;2022-08-19T02:15:22;15.50;47.10
60242;SHT30;46103;52.076;113.488;2022-08-19T02:18:28;15.30;47.43
60242;SHT30;46103;52.076;113.488;2022-08-19T02:21:34;15.20;46.14
60242;SHT30;46103;52.076;113.488;2022-08-19T02:24:40;15.18;45.99
60242;SHT30;46103;52.076;113.488;2022-08-19T02:27:45;14.92;46.29
60242;SHT30;46103;52.076;113.488;2022-08-19T02:30:52;14.88;46.95
60242;SHT30;46103;52.076;113.488;2022-08-19T02:33:59;15.05;45.62
60242;SHT30;46103;52.076;113.488;2022-08-19T02:37:06;15.23;45.21
60242;SHT30;46103;52.076;113.488;2022-08-19T02:40:32;15.47;44.42
60242;SHT30;46103;52.076;113.488;2022-08-19T02:43:39;15.54;44.74
60242;SHT30;46103;52.076;113.488;2022-08-19T02:47:05;15.63;44.03
60242;SHT30;46103;52.076;113.488;2022-08-19T02:50:11;15.61;43.80
60242;SHT30;46103;52.076;113.488;2022-08-19T02:53:18;15.67;43.75
60242;SHT30;46103;52.076;113.488;2022-08-19T02:56:26;15.68;43.53
60242;SHT30;46103;52.076;113.488;2022-08-19T02:59:32;15.77;42.68
60242;SHT30;46103;52.076;113.488;2022-08-19T03:02:36;15.90;41.63
60242;SHT30;46103;52.076;113.488;2022-08-19T03:05:39;15.78;42.03
60242;SHT30;46103;52.076;113.488;2022-08-19T03:08:57;15.88;43.06
60242;SHT30;46103;52.076;113.488;2022-08-19T03:12:03;15.94;42.08
60242;SHT30;46103;52.076;113.488;2022-08-19T03:15:10;16.12;41.59
60242;SHT30;46103;52.076;113.488;2022-08-19T03:18:17;15.87;40.96
60242;SHT30;46103;52.076;113.488;2022-08-19T03:21:27;15.87;40.25
60242;SHT30;46103;52.076;113.488;2022-08-19T03:24:33;15.91;40.87
60242;SHT30;46103;52.076;113.488;2022-08-19T03:27:38;16.16;41.22
60242;SHT30;46103;52.076;113.488;2022-08-19T03:30:55;16.08;41.46
60242;SHT30;46103;52.076;113.488;2022-08-19T03:34:03;16.18;40.57
60242;SHT30;46103;52.076;113.488;2022-08-19T03:37:10;16.02;41.53
60242;SHT30;46103;52.076;113.488;2022-08-19T03:40:19;16.05;40.87
60242;SHT30;46103;52.076;113.488;2022-08-19T03:43:23;15.95;41.53
60242;SHT30;46103;52.076;113.488;2022-08-19T03:46:34;15.91;41.93
60242;SHT30;46103;52.076;113.488;2022-08-19T03:49:44;15.95;40.88
60242;SHT30;46103;52.076;113.488;2022-08-19T03:52:53;16.09;40.91
60242;SHT30;46103;52.076;113.488;2022-08-19T03:55:58;16.16;40.43
60242;SHT30;46103;52.076;113.488;2022-08-19T03:59:07;16.29;40.64
60242;SHT30;46103;52.076;113.488;2022-08-19T04:02:12;16.40;40.16
60242;SHT30;46103;52.076;113.488;2022-08-19T04:05:16;16.43;40.12
60242;SHT30;46103;52.076;113.488;2022-08-19T04:08:26;16.61;39.18
60242;SHT30;46103;52.076;113.488;2022-08-19T04:11:34;16.85;38.09
60242;SHT30;46103;52.076;113.488;2022-08-19T04:14:46;17.14;38.43
60242;SHT30;46103;52.076;113.488;2022-08-19T04:17:51;17.42;37.01
60242;SHT30;46103;52.076;113.488;2022-08-19T04:20:58;17.22;38.23
60242;SHT30;46103;52.076;113.488;2022-08-19T04:24:03;17.16;38.39
60242;SHT30;46103;52.076;113.488;2022-08-19T04:27:09;17.21;37.06
60242;SHT30;46103;52.076;113.488;2022-08-19T04:30:14;17.60;36.82
60242;SHT30;46103;52.076;113.488;2022-08-19T04:33:23;17.93;35.47
60242;SHT30;46103;52.076;113.488;2022-08-19T04:36:33;17.98;34.96
60242;SHT30;46103;52.076;113.488;2022-08-19T04:39:39;17.93;34.42
60242;SHT30;46103;52.076;113.488;2022-08-19T04:43:04;17.86;34.49
60242;SHT30;46103;52.076;113.488;2022-08-19T04:46:11;17.88;33.80
60242;SHT30;46103;52.076;113.488;2022-08-19T04:49:36;17.97;33.41
60242;SHT30;46103;52.076;113.488;2022-08-19T04:52:41;17.98;33.79
60242;SHT30;46103;52.076;113.488;2022-08-19T04:55:47;18.04;35.33
60242;SHT30;46103;52.076;113.488;2022-08-19T04:58:55;17.74;36.73
60242;SHT30;46103;52.076;113.488;2022-08-19T05:02:01;17.32;35.40
60242;SHT30;46103;52.076;113.488;2022-08-19T05:05:07;16.92;35.06
60242;SHT30;46103;52.076;113.488;2022-08-19T05:08:13;17.05;35.46
60242;SHT30;46103;52.076;113.488;2022-08-19T05:11:36;17.70;34.30
60242;SHT30;46103;52.076;113.488;2022-08-19T05:14:48;18.02;33.67
60242;SHT30;46103;52.076;113.488;2022-08-19T05:17:54;17.81;34.05
60242;SHT30;46103;52.076;113.488;2022-08-19T05:21:19;17.70;33.86
60242;SHT30;46103;52.076;113.488;2022-08-19T05:24:42;17.51;34.95
60242;SHT30;46103;52.076;113.488;2022-08-19T05:28:06;17.18;34.49
60242;SHT30;46103;52.076;113.488;2022-08-19T05:31:12;17.36;33.81
60242;SHT30;46103;52.076;113.488;2022-08-19T05:34:19;17.54;33.99
60242;SHT30;46103;52.076;113.488;2022-08-19T05:37:29;17.97;32.92
60242;SHT30;46103;52.076;113.488;2022-08-19T05:40:38;17.98;34.00
60242;SHT30;46103;52.076;113.488;2022-08-19T05:43:42;17.93;34.23
60242;SHT30;46103;52.076;113.488;2022-08-19T05:46:50;17.98;34.68
60242;SHT30;46103;52.076;113.488;2022-08-19T05:49:58;18.39;34.92
60242;SHT30;46103;52.076;113.488;2022-08-19T05:53:07;18.36;35.35
60242;SHT30;46103;52.076;113.488;2022-08-19T05:56:15;18.32;35.53
60242;SHT30;46103;52.076;113.488;2022-08-19T06:03:21;18.79;33.22
60242;SHT30;46103;52.076;113.488;2022-08-19T06:06:28;18.74;32.85
60242;SHT30;46103;52.076;113.488;2022-08-19T06:09:37;18.43;32.02
60242;SHT30;46103;52.076;113.488;2022-08-19T06:12:46;18.48;32.42
60242;SHT30;46103;52.076;113.488;2022-08-19T06:15:52;18.48;32.65
60242;SHT30;46103;52.076;113.488;2022-08-19T06:36:49;18.99;29.68
60242;SHT30;46103;52.076;113.488;2022-08-19T06:39:53;19.28;29.33
60242;SHT30;46103;52.076;113.488;2022-08-19T06:42:57;19.59;28.90
60242;SHT30;46103;52.076;113.488;2022-08-19T06:46:13;19.82;28.40
60242;SHT30;46103;52.076;113.488;2022-08-19T06:49:19;20.11;27.30
60242;SHT30;46103;52.076;113.488;2022-08-19T06:52:24;20.22;27.37
60242;SHT30;46103;52.076;113.488;2022-08-19T06:55:28;20.52;27.81
60242;SHT30;46103;52.076;113.488;2022-08-19T06:58:35;20.61;27.04
60242;SHT30;46103;52.076;113.488;2022-08-19T07:01:49;20.86;27.60
60242;SHT30;46103;52.076;113.488;2022-08-19T07:04:53;20.80;27.42
60242;SHT30;46103;52.076;113.488;2022-08-19T07:07:59;20.80;26.92
60242;SHT30;46103;52.076;113.488;2022-08-19T07:11:08;20.80;27.16
60242;SHT30;46103;52.076;113.488;2022-08-19T07:14:17;21.16;27.04
60242;SHT30;46103;52.076;113.488;2022-08-19T07:17:24;21.69;25.87
60242;SHT30;46103;52.076;113.488;2022-08-19T07:20:29;21.10;26.70
60242;SHT30;46103;52.076;113.488;2022-08-19T07:23:34;21.54;26.36
60242;SHT30;46103;52.076;113.488;2022-08-19T07:26:41;21.90;26.16
60242;SHT30;46103;52.076;113.488;2022-08-19T07:29:48;22.43;24.85
60242;SHT30;46103;52.076;113.488;2022-08-19T07:33:02;22.71;25.73
60242;SHT30;46103;52.076;113.488;2022-08-19T07:36:09;23.11;25.43
60242;SHT30;46103;52.076;113.488;2022-08-19T07:39:19;23.31;25.97
60242;SHT30;46103;52.076;113.488;2022-08-19T07:42:25;23.13;25.81
60242;SHT30;46103;52.076;113.488;2022-08-19T07:45:32;22.40;27.19
60242;SHT30;46103;52.076;113.488;2022-08-19T07:48:39;22.24;27.71
60242;SHT30;46103;52.076;113.488;2022-08-19T07:51:48;21.68;28.89
60242;SHT30;46103;52.076;113.488;2022-08-19T07:54:53;21.44;29.34
60242;SHT30;46103;52.076;113.488;2022-08-19T07:57:59;21.27;30.69
60242;SHT30;46103;52.076;113.488;2022-08-19T08:01:09;20.56;32.90
60242;SHT30;46103;52.076;113.488;2022-08-19T08:04:18;19.08;36.03
60242;SHT30;46103;52.076;113.488;2022-08-19T08:07:41;18.04;38.53
60242;SHT30;46103;52.076;113.488;2022-08-19T08:11:05;18.55;38.84
60242;SHT30;46103;52.076;113.488;2022-08-19T08:14:12;18.72;37.99
60242;SHT30;46103;52.076;113.488;2022-08-19T08:17:37;18.39;38.09
60242;SHT30;46103;52.076;113.488;2022-08-19T08:20:51;17.73;38.96
60242;SHT30;46103;52.076;113.488;2022-08-19T08:23:56;17.40;39.59
60242;SHT30;46103;52.076;113.488;2022-08-19T08:27:03;17.91;38.41
60242;SHT30;46103;52.076;113.488;2022-08-19T08:30:18;17.88;38.14
60242;SHT30;46103;52.076;113.488;2022-08-19T08:33:25;17.65;38.71
60242;SHT30;46103;52.076;113.488;2022-08-19T08:36:39;17.65;38.32
60242;SHT30;46103;52.076;113.488;2022-08-19T08:39:47;19.17;35.16
60242;SHT30;46103;52.076;113.488;2022-08-19T08:46:38;22.37;29.47
60242;SHT30;46103;52.076;113.488;2022-08-19T08:49:51;22.85;27.84
60242;SHT30;46103;52.076;113.488;2022-08-19T08:52:58;23.08;27.70
60242;SHT30;46103;52.076;113.488;2022-08-19T08:56:06;23.31;26.84
60242;SHT30;46103;52.076;113.488;2022-08-19T08:59:33;23.54;26.60
60242;SHT30;46103;52.076;113.488;2022-08-19T09:02:38;24.18;26.13
60242;SHT30;46103;52.076;113.488;2022-08-19T09:09:05;24.84;25.62
60242;SHT30;46103;52.076;113.488;2022-08-19T09:15:51;20.87;31.97
60242;SHT30;46103;52.076;113.488;2022-08-19T09:19:02;22.34;29.98
60242;SHT30;46103;52.076;113.488;2022-08-19T09:22:08;21.90;30.83
60242;SHT30;46103;52.076;113.488;2022-08-19T09:25:16;21.38;32.42
60242;SHT30;46103;52.076;113.488;2022-08-19T09:28:31;20.64;33.31
60242;SHT30;46103;52.076;113.488;2022-08-19T09:31:35;20.13;33.96
60242;SHT30;46103;52.076;113.488;2022-08-19T09:34:41;19.69;34.87
60242;SHT30;46103;52.076;113.488;2022-08-19T09:37:53;21.37;31.37
60242;SHT30;46103;52.076;113.488;2022-08-19T09:41:08;21.02;29.76
60242;SHT30;46103;52.076;113.488;2022-08-19T09:44:14;19.87;31.43
60242;SHT30;46103;52.076;113.488;2022-08-19T09:47:21;19.03;34.21
60242;SHT30;46103;52.076;113.488;2022-08-19T09:50:27;18.74;35.25
60242;SHT30;46103;52.076;113.488;2022-08-19T09:53:38;18.43;36.10
60242;SHT30;46103;52.076;113.488;2022-08-19T09:56:44;20.69;32.21
60242;SHT30;46103;52.076;113.488;2022-08-19T09:59:49;22.14;28.82
60242;SHT30;46103;52.076;113.488;2022-08-19T10:02:53;22.43;27.94
60242;SHT30;46103;52.076;113.488;2022-08-19T10:05:59;23.12;26.59
60242;SHT30;46103;52.076;113.488;2022-08-19T10:09:04;23.81;26.08
60242;SHT30;46103;52.076;113.488;2022-08-19T10:12:10;24.66;25.09
60242;SHT30;46103;52.076;113.488;2022-08-19T10:15:19;24.98;24.98
60242;SHT30;46103;52.076;113.488;2022-08-19T10:18:31;25.74;24.47
60242;SHT30;46103;52.076;113.488;2022-08-19T10:21:39;26.56;23.27
60242;SHT30;46103;52.076;113.488;2022-08-19T10:24:47;26.48;24.00
60242;SHT30;46103;52.076;113.488;2022-08-19T10:28:06;24.74;26.18
60242;SHT30;46103;52.076;113.488;2022-08-19T10:31:30;26.22;24.19
60242;SHT30;46103;52.076;113.488;2022-08-19T10:35:05;26.48;24.14
60242;SHT30;46103;52.076;113.488;2022-08-19T10:38:34;26.46;24.12
60242;SHT30;46103;52.076;113.488;2022-08-19T10:41:55;26.97;23.20
60242;SHT30;46103;52.076;113.488;2022-08-19T10:45:05;26.28;24.22
60242;SHT30;46103;52.076;113.488;2022-08-19T10:48:09;25.65;24.60
60242;SHT30;46103;52.076;113.488;2022-08-19T10:51:21;25.08;25.38
60242;SHT30;46103;52.076;113.488;2022-08-19T10:55:21;24.74;25.67
60242;SHT30;46103;52.076;113.488;2022-08-19T10:58:46;24.25;26.40
60242;SHT30;46103;52.076;113.488;2022-08-19T11:01:54;23.91;25.87
60242;SHT30;46103;52.076;113.488;2022-08-19T11:04:59;23.40;26.71
60242;SHT30;46103;52.076;113.488;2022-08-19T11:08:14;23.13;27.06
60242;SHT30;46103;52.076;113.488;2022-08-19T11:11:35;23.06;27.27
60242;SHT30;46103;52.076;113.488;2022-08-19T11:14:43;22.71;27.50
60242;SHT30;46103;52.076;113.488;2022-08-19T11:17:48;22.39;28.63
60242;SHT30;46103;52.076;113.488;2022-08-19T11:20:51;22.03;29.01
60242;SHT30;46103;52.076;113.488;2022-08-19T11:24:09;21.38;29.99
60242;SHT30;46103;52.076;113.488;2022-08-19T11:27:13;19.77;32.28
60242;SHT30;46103;52.076;113.488;2022-08-19T11:30:17;18.80;34.32
60242;SHT30;46103;52.076;113.488;2022-08-19T11:33:21;18.07;36.11
60242;SHT30;46103;52.076;113.488;2022-08-19T11:36:25;17.57;37.45
60242;SHT30;46103;52.076;113.488;2022-08-19T11:39:31;17.14;38.09
60242;SHT30;46103;52.076;113.488;2022-08-19T11:42:38;16.80;38.40
60242;SHT30;46103;52.076;113.488;2022-08-19T11:46:10;16.50;39.08
60242;SHT30;46103;52.076;113.488;2022-08-19T11:49:18;16.28;39.99
60242;SHT30;46103;52.076;113.488;2022-08-19T11:52:26;16.13;40.32
60242;SHT30;46103;52.076;113.488;2022-08-19T11:55:39;15.95;40.49
60242;SHT30;46103;52.076;113.488;2022-08-19T11:58:47;15.82;39.76
60242;SHT30;46103;52.076;113.488;2022-08-19T12:01:52;15.71;40.28
60242;SHT30;46103;52.076;113.488;2022-08-19T12:04:57;15.64;38.92
60242;SHT30;46103;52.076;113.488;2022-08-19T12:08:01;15.51;39.96
60242;SHT30;46103;52.076;113.488;2022-08-19T12:11:07;15.40;40.01
60242;SHT30;46103;52.076;113.488;2022-08-19T12:14:12;15.29;40.02
60242;SHT30;46103;52.076;113.488;2022-08-19T12:17:20;15.26;40.35
60242;SHT30;46103;52.076;113.488;2022-08-19T12:20:25;15.18;40.40
60242;SHT30;46103;52.076;113.488;2022-08-19T12:23:29;15.10;40.60
60242;SHT30;46103;52.076;113.488;2022-08-19T12:26:34;15.02;40.77
60242;SHT30;46103;52.076;113.488;2022-08-19T12:29:55;14.96;40.51
60242;SHT30;46103;52.076;113.488;2022-08-19T12:32:58;14.91;40.71
60242;SHT30;46103;52.076;113.488;2022-08-19T12:36:09;14.84;40.72
60242;SHT30;46103;52.076;113.488;2022-08-19T12:39:13;14.74;40.89
60242;SHT30;46103;52.076;113.488;2022-08-19T12:42:17;14.64;40.88
60242;SHT30;46103;52.076;113.488;2022-08-19T12:45:21;14.60;41.22
60242;SHT30;46103;52.076;113.488;2022-08-19T12:48:26;14.52;41.12
60242;SHT30;46103;52.076;113.488;2022-08-19T12:51:37;14.47;40.98
60242;SHT30;46103;52.076;113.488;2022-08-19T12:54:40;14.41;41.07
60242;SHT30;46103;52.076;113.488;2022-08-19T12:57:47;14.36;40.94
60242;SHT30;46103;52.076;113.488;2022-08-19T13:00:55;14.26;41.49
60242;SHT30;46103;52.076;113.488;2022-08-19T13:03:59;14.23;41.34
60242;SHT30;46103;52.076;113.488;2022-08-19T13:07:03;14.17;41.48
60242;SHT30;46103;52.076;113.488;2022-08-19T13:10:09;14.12;41.81
60242;SHT30;46103;52.076;113.488;2022-08-19T13:13:15;14.09;41.88
60242;SHT30;46103;52.076;113.488;2022-08-19T13:16:19;14.06;41.88
60242;SHT30;46103;52.076;113.488;2022-08-19T13:19:23;14.01;42.31
60242;SHT30;46103;52.076;113.488;2022-08-19T13:22:28;13.93;42.14
60242;SHT30;46103;52.076;113.488;2022-08-19T13:25:32;13.87;42.64
60242;SHT30;46103;52.076;113.488;2022-08-19T13:28:36;13.76;42.95
60242;SHT30;46103;52.076;113.488;2022-08-19T13:31:58;13.71;43.25
60242;SHT30;46103;52.076;113.488;2022-08-19T13:35:21;13.66;43.40
60242;SHT30;46103;52.076;113.488;2022-08-19T13:38:27;13.64;43.50
60242;SHT30;46103;52.076;113.488;2022-08-19T13:41:51;13.55;43.52
60242;SHT30;46103;52.076;113.488;2022-08-19T13:44:56;13.58;43.58
60242;SHT30;46103;52.076;113.488;2022-08-19T13:48:06;13.61;43.90
60242;SHT30;46103;52.076;113.488;2022-08-19T13:51:25;13.57;43.93
60242;SHT30;46103;52.076;113.488;2022-08-19T13:54:28;13.54;44.03
60242;SHT30;46103;52.076;113.488;2022-08-19T13:57:33;13.50;44.29
60242;SHT30;46103;52.076;113.488;2022-08-19T14:00:41;13.47;44.55
60242;SHT30;46103;52.076;113.488;2022-08-19T14:03:49;13.40;44.72
60242;SHT30;46103;52.076;113.488;2022-08-19T14:06:56;13.31;45.03
60242;SHT30;46103;52.076;113.488;2022-08-19T14:10:01;13.30;45.05
60242;SHT30;46103;52.076;113.488;2022-08-19T14:13:15;13.23;45.37
60242;SHT30;46103;52.076;113.488;2022-08-19T14:16:23;13.24;45.39
60242;SHT30;46103;52.076;113.488;2022-08-19T14:19:27;13.19;45.66
60242;SHT30;46103;52.076;113.488;2022-08-19T14:22:37;13.13;45.70
60242;SHT30;46103;52.076;113.488;2022-08-19T14:25:43;13.11;45.81
60242;SHT30;46103;52.076;113.488;2022-08-19T14:28:52;13.07;46.11
60242;SHT30;46103;52.076;113.488;2022-08-19T14:31:58;13.02;46.10
60242;SHT30;46103;52.076;113.488;2022-08-19T14:35:12;13.03;46.09
60242;SHT30;46103;52.076;113.488;2022-08-19T14:38:27;13.02;46.26
60242;SHT30;46103;52.076;113.488;2022-08-19T14:41:48;12.99;46.33
60242;SHT30;46103;52.076;113.488;2022-08-19T14:44:52;12.96;46.55
60242;SHT30;46103;52.076;113.488;2022-08-19T14:47:57;12.92;46.68
60242;SHT30;46103;52.076;113.488;2022-08-19T14:51:03;12.90;46.86
60242;SHT30;46103;52.076;113.488;2022-08-19T14:54:25;12.86;47.07
60242;SHT30;46103;52.076;113.488;2022-08-19T14:57:31;12.86;46.83
60242;SHT30;46103;52.076;113.488;2022-08-19T15:00:39;12.75;47.48
60242;SHT30;46103;52.076;113.488;2022-08-19T15:03:52;12.72;47.35
60242;SHT30;46103;52.076;113.488;2022-08-19T15:07:34;12.66;48.27
60242;SHT30;46103;52.076;113.488;2022-08-19T15:10:54;12.56;49.71
60242;SHT30;46103;52.076;113.488;2022-08-19T15:13:59;12.49;50.70
60242;SHT30;46103;52.076;113.488;2022-08-19T15:17:13;12.33;51.50
60242;SHT30;46103;52.076;113.488;2022-08-19T15:20:19;12.14;52.49
60242;SHT30;46103;52.076;113.488;2022-08-19T15:23:24;12.00;53.01
60242;SHT30;46103;52.076;113.488;2022-08-19T15:26:28;11.87;53.00
60242;SHT30;46103;52.076;113.488;2022-08-19T15:29:35;11.82;53.09
60242;SHT30;46103;52.076;113.488;2022-08-19T15:32:40;11.70;53.25
60242;SHT30;46103;52.076;113.488;2022-08-19T15:35:53;11.62;53.89
60242;SHT30;46103;52.076;113.488;2022-08-19T15:39:04;11.58;54.15
60242;SHT30;46103;52.076;113.488;2022-08-19T15:42:14;11.45;54.25
60242;SHT30;46103;52.076;113.488;2022-08-19T15:45:32;11.28;54.89
60242;SHT30;46103;52.076;113.488;2022-08-19T15:48:37;11.20;55.65
60242;SHT30;46103;52.076;113.488;2022-08-19T15:51:43;11.14;56.82
60242;SHT30;46103;52.076;113.488;2022-08-19T15:54:47;11.15;57.02
60242;SHT30;46103;52.076;113.488;2022-08-19T15:57:52;11.15;56.74
60242;SHT30;46103;52.076;113.488;2022-08-19T16:01:31;11.20;56.62
60242;SHT30;46103;52.076;113.488;2022-08-19T16:04:43;11.13;57.47
60242;SHT30;46103;52.076;113.488;2022-08-19T16:08:07;11.14;57.91
60242;SHT30;46103;52.076;113.488;2022-08-19T16:11:18;11.14;58.21
60242;SHT30;46103;52.076;113.488;2022-08-19T16:14:24;11.10;58.85
60242;SHT30;46103;52.076;113.488;2022-08-19T16:17:30;11.08;58.11
60242;SHT30;46103;52.076;113.488;2022-08-19T16:20:36;10.99;57.26
60242;SHT30;46103;52.076;113.488;2022-08-19T16:23:43;10.93;56.99
60242;SHT30;46103;52.076;113.488;2022-08-19T16:26:50;10.76;55.95
60242;SHT30;46103;52.076;113.488;2022-08-19T16:30:00;10.66;55.98
60242;SHT30;46103;52.076;113.488;2022-08-19T16:33:09;10.55;56.35
60242;SHT30;46103;52.076;113.488;2022-08-19T16:36:25;10.44;56.56
60242;SHT30;46103;52.076;113.488;2022-08-19T16:39:34;10.34;56.94
60242;SHT30;46103;52.076;113.488;2022-08-19T16:42:40;10.19;57.85
60242;SHT30;46103;52.076;113.488;2022-08-19T16:45:48;10.07;57.99
60242;SHT30;46103;52.076;113.488;2022-08-19T16:48:57;9.98;58.60
60242;SHT30;46103;52.076;113.488;2022-08-19T16:52:04;9.93;58.49
60242;SHT30;46103;52.076;113.488;2022-08-19T16:55:10;9.83;58.91
60242;SHT30;46103;52.076;113.488;2022-08-19T16:58:17;9.76;59.93
60242;SHT30;46103;52.076;113.488;2022-08-19T17:01:30;9.74;60.62
60242;SHT30;46103;52.076;113.488;2022-08-19T17:04:37;9.67;59.81
60242;SHT30;46103;52.076;113.488;2022-08-19T17:07:43;9.70;59.50
60242;SHT30;46103;52.076;113.488;2022-08-19T17:10:49;9.70;59.65
60242;SHT30;46103;52.076;113.488;2022-08-19T17:14:16;9.66;59.09
60242;SHT30;46103;52.076;113.488;2022-08-19T17:17:23;9.59;59.35
60242;SHT30;46103;52.076;113.488;2022-08-19T17:20:32;9.56;59.68
60242;SHT30;46103;52.076;113.488;2022-08-19T17:23:39;9.56;59.85
60242;SHT30;46103;52.076;113.488;2022-08-19T17:26:46;9.45;60.18
60242;SHT30;46103;52.076;113.488;2022-08-19T17:29:53;9.39;60.35
60242;SHT30;46103;52.076;113.488;2022-08-19T17:32:59;9.38;60.47
60242;SHT30;46103;52.076;113.488;2022-08-19T17:36:05;9.35;60.62
60242;SHT30;46103;52.076;113.488;2022-08-19T17:39:10;9.35;60.63
60242;SHT30;46103;52.076;113.488;2022-08-19T17:42:15;9.34;60.56
60242;SHT30;46103;52.076;113.488;2022-08-19T17:45:21;9.35;60.45
60242;SHT30;46103;52.076;113.488;2022-08-19T17:48:33;9.34;60.34
60242;SHT30;46103;52.076;113.488;2022-08-19T17:51:45;9.29;60.47
60242;SHT30;46103;52.076;113.488;2022-08-19T17:54:53;9.29;60.52
60242;SHT30;46103;52.076;113.488;2022-08-19T17:57:58;9.29;60.58
60242;SHT30;46103;52.076;113.488;2022-08-19T18:01:13;9.25;60.68
60242;SHT30;46103;52.076;113.488;2022-08-19T18:04:24;9.25;60.60
60242;SHT30;46103;52.076;113.488;2022-08-19T18:07:30;9.24;60.56
60242;SHT30;46103;52.076;113.488;2022-08-19T18:10:37;9.24;60.73
60242;SHT30;46103;52.076;113.488;2022-08-19T18:13:43;9.19;61.01
60242;SHT30;46103;52.076;113.488;2022-08-19T18:16:49;9.22;60.76
60242;SHT30;46103;52.076;113.488;2022-08-19T18:19:58;9.25;60.59
60242;SHT30;46103;52.076;113.488;2022-08-19T18:23:04;9.34;60.26
60242;SHT30;46103;52.076;113.488;2022-08-19T18:26:30;9.43;59.81
60242;SHT30;46103;52.076;113.488;2022-08-19T18:29:35;9.49;59.35
60242;SHT30;46103;52.076;113.488;2022-08-19T18:32:44;9.54;59.38
60242;SHT30;46103;52.076;113.488;2022-08-19T18:35:53;9.49;59.65
60242;SHT30;46103;52.076;113.488;2022-08-19T18:38:59;9.54;59.80
60242;SHT30;46103;52.076;113.488;2022-08-19T18:42:25;9.59;59.53
60242;SHT30;46103;52.076;113.488;2022-08-19T18:45:49;9.59;59.47
60242;SHT30;46103;52.076;113.488;2022-08-19T18:49:18;9.60;59.50
60242;SHT30;46103;52.076;113.488;2022-08-19T18:52:25;9.54;59.74
60242;SHT30;46103;52.076;113.488;2022-08-19T18:55:31;9.63;59.09
60242;SHT30;46103;52.076;113.488;2022-08-19T18:58:38;9.64;58.66
60242;SHT30;46103;52.076;113.488;2022-08-19T19:01:46;9.73;58.61
60242;SHT30;46103;52.076;113.488;2022-08-19T19:04:54;9.70;58.56
60242;SHT30;46103;52.076;113.488;2022-08-19T19:07:59;9.79;58.48
60242;SHT30;46103;52.076;113.488;2022-08-19T19:11:08;9.79;58.18
60242;SHT30;46103;52.076;113.488;2022-08-19T19:14:17;9.83;58.37
60242;SHT30;46103;52.076;113.488;2022-08-19T19:17:45;9.84;58.61
60242;SHT30;46103;52.076;113.488;2022-08-19T19:20:52;9.84;58.47
60242;SHT30;46103;52.076;113.488;2022-08-19T19:23:58;9.86;58.14
60242;SHT30;46103;52.076;113.488;2022-08-19T19:27:08;9.89;58.23
60242;SHT30;46103;52.076;113.488;2022-08-19T19:30:15;9.91;58.00
60242;SHT30;46103;52.076;113.488;2022-08-19T19:33:22;9.89;57.87
60242;SHT30;46103;52.076;113.488;2022-08-19T19:36:29;9.83;58.13
60242;SHT30;46103;52.076;113.488;2022-08-19T19:39:34;9.80;58.23
60242;SHT30;46103;52.076;113.488;2022-08-19T19:42:49;9.77;58.30
60242;SHT30;46103;52.076;113.488;2022-08-19T19:45:56;9.74;58.20
60242;SHT30;46103;52.076;113.488;2022-08-19T19:49:03;9.67;58.75
60242;SHT30;46103;52.076;113.488;2022-08-19T19:52:10;9.45;59.44
60242;SHT30;46103;52.076;113.488;2022-08-19T19:55:17;9.25;60.10
60242;SHT30;46103;52.076;113.488;2022-08-19T19:58:26;9.15;60.52
60242;SHT30;46103;52.076;113.488;2022-08-19T20:01:32;9.14;60.70